Hatchs Corner, New York
Current Conditions -  °F | °C
As of 5:58 AM on Tuesday 21 Oct 2014 (Local Time) from KGTB Reporting Station
Overcast Overcast  
Wind Chill: 41°   Ceiling: 4600
Heat Index: 46°   Visibility: 10mi
Dew Point: 44°   Wind: 10mph
Humidity: 91%   Direction: 150°SSE
Pressure: 29.83"   Gusts: NA
Location:  44.3602°N, 75.0433°W
Report Text: KGTB 210958Z AUTO 15009KT 10SM OVC046 08/06 A2983 RMK AO2 SLP105 T00780064
Loading
Personal Weather Stations






























Interactive Weather Map
Tropical Storm Tracking
New forecast layout! Learn more

10-Day Weather Forecast

Advertisements
Track Severe Weather on mobile